sensor_id;sensor_type;location;lat;lon;timestamp;P1;durP1;ratioP1;P2;durP2;ratioP2
43771;SDS011;59066;54.782;32.024;2022-10-28T00:03:46;7.97;;;5.00;;
43771;SDS011;59066;54.782;32.024;2022-10-28T00:06:19;8.35;;;5.20;;
43771;SDS011;59066;54.782;32.024;2022-10-28T00:08:48;6.80;;;4.97;;
43771;SDS011;59066;54.782;32.024;2022-10-28T00:11:20;8.68;;;4.47;;
43771;SDS011;59066;54.782;32.024;2022-10-28T00:13:51;6.45;;;5.00;;
43771;SDS011;59066;54.782;32.024;2022-10-28T00:16:21;7.60;;;4.20;;
43771;SDS011;59066;54.782;32.024;2022-10-28T00:18:51;6.43;;;4.28;;
43771;SDS011;59066;54.782;32.024;2022-10-28T00:21:21;6.93;;;4.05;;
43771;SDS011;59066;54.782;32.024;2022-10-28T00:23:50;8.00;;;4.35;;
43771;SDS011;59066;54.782;32.024;2022-10-28T00:26:22;7.35;;;3.75;;
43771;SDS011;59066;54.782;32.024;2022-10-28T00:28:55;6.80;;;3.97;;
43771;SDS011;59066;54.782;32.024;2022-10-28T00:31:27;6.47;;;4.38;;
43771;SDS011;59066;54.782;32.024;2022-10-28T00:33:56;7.57;;;4.57;;
43771;SDS011;59066;54.782;32.024;2022-10-28T00:36:26;7.93;;;5.15;;
43771;SDS011;59066;54.782;32.024;2022-10-28T00:38:55;7.43;;;4.72;;
43771;SDS011;59066;54.782;32.024;2022-10-28T00:41:24;7.65;;;4.20;;
43771;SDS011;59066;54.782;32.024;2022-10-28T00:51:02;6.70;;;3.88;;
43771;SDS011;59066;54.782;32.024;2022-10-28T00:53:31;6.50;;;4.25;;
43771;SDS011;59066;54.782;32.024;2022-10-28T00:55:59;7.28;;;3.97;;
43771;SDS011;59066;54.782;32.024;2022-10-28T00:58:29;9.60;;;4.38;;
43771;SDS011;59066;54.782;32.024;2022-10-28T01:00:56;5.25;;;3.92;;
43771;SDS011;59066;54.782;32.024;2022-10-28T01:03:24;7.50;;;4.45;;
43771;SDS011;59066;54.782;32.024;2022-10-28T01:05:52;5.85;;;3.92;;
43771;SDS011;59066;54.782;32.024;2022-10-28T01:08:19;8.93;;;4.32;;
43771;SDS011;59066;54.782;32.024;2022-10-28T01:11:01;5.43;;;3.80;;
43771;SDS011;59066;54.782;32.024;2022-10-28T01:30:03;5.28;;;3.20;;
43771;SDS011;59066;54.782;32.024;2022-10-28T01:35:33;5.30;;;3.40;;
43771;SDS011;59066;54.782;32.024;2022-10-28T01:41:12;4.70;;;3.00;;
43771;SDS011;59066;54.782;32.024;2022-10-28T01:43:48;5.18;;;3.03;;
43771;SDS011;59066;54.782;32.024;2022-10-28T01:46:34;4.90;;;2.78;;
43771;SDS011;59066;54.782;32.024;2022-10-28T01:49:15;4.63;;;3.05;;
43771;SDS011;59066;54.782;32.024;2022-10-28T01:51:49;4.85;;;3.00;;
43771;SDS011;59066;54.782;32.024;2022-10-28T01:54:21;5.00;;;2.72;;
43771;SDS011;59066;54.782;32.024;2022-10-28T01:56:52;5.85;;;2.95;;
43771;SDS011;59066;54.782;32.024;2022-10-28T01:59:23;5.90;;;2.60;;
43771;SDS011;59066;54.782;32.024;2022-10-28T02:01:53;3.60;;;2.63;;
43771;SDS011;59066;54.782;32.024;2022-10-28T02:04:21;4.03;;;3.22;;
43771;SDS011;59066;54.782;32.024;2022-10-28T02:06:50;5.47;;;2.90;;
43771;SDS011;59066;54.782;32.024;2022-10-28T02:22:51;3.97;;;2.47;;
43771;SDS011;59066;54.782;32.024;2022-10-28T02:25:34;3.28;;;2.47;;
43771;SDS011;59066;54.782;32.024;2022-10-28T02:28:08;5.43;;;2.80;;
43771;SDS011;59066;54.782;32.024;2022-10-28T02:30:41;3.55;;;2.90;;
43771;SDS011;59066;54.782;32.024;2022-10-28T02:33:21;4.45;;;2.97;;
43771;SDS011;59066;54.782;32.024;2022-10-28T02:35:53;3.20;;;2.63;;
43771;SDS011;59066;54.782;32.024;2022-10-28T02:38:27;5.35;;;2.58;;
43771;SDS011;59066;54.782;32.024;2022-10-28T02:41:01;5.07;;;3.20;;
43771;SDS011;59066;54.782;32.024;2022-10-28T02:43:32;4.85;;;2.88;;
43771;SDS011;59066;54.782;32.024;2022-10-28T02:46:02;5.03;;;3.03;;
43771;SDS011;59066;54.782;32.024;2022-10-28T02:48:34;5.65;;;3.05;;
43771;SDS011;59066;54.782;32.024;2022-10-28T02:51:10;6.70;;;3.60;;
43771;SDS011;59066;54.782;32.024;2022-10-28T02:54:03;5.95;;;3.53;;
43771;SDS011;59066;54.782;32.024;2022-10-28T02:56:39;7.35;;;3.28;;
43771;SDS011;59066;54.782;32.024;2022-10-28T02:59:11;6.63;;;3.53;;
43771;SDS011;59066;54.782;32.024;2022-10-28T03:01:39;6.53;;;3.17;;
43771;SDS011;59066;54.782;32.024;2022-10-28T03:04:07;5.18;;;3.08;;
43771;SDS011;59066;54.782;32.024;2022-10-28T03:06:34;6.05;;;3.53;;
43771;SDS011;59066;54.782;32.024;2022-10-28T03:09:02;8.48;;;5.13;;
43771;SDS011;59066;54.782;32.024;2022-10-28T03:11:29;5.07;;;3.97;;
43771;SDS011;59066;54.782;32.024;2022-10-28T03:13:57;9.25;;;4.85;;
43771;SDS011;59066;54.782;32.024;2022-10-28T03:16:24;6.07;;;3.78;;
43771;SDS011;59066;54.782;32.024;2022-10-28T03:18:55;7.05;;;3.45;;
43771;SDS011;59066;54.782;32.024;2022-10-28T03:21:22;6.60;;;3.72;;
43771;SDS011;59066;54.782;32.024;2022-10-28T03:23:50;6.57;;;3.42;;
43771;SDS011;59066;54.782;32.024;2022-10-28T03:26:17;3.63;;;2.88;;
43771;SDS011;59066;54.782;32.024;2022-10-28T03:28:45;7.10;;;4.93;;
43771;SDS011;59066;54.782;32.024;2022-10-28T03:31:12;4.60;;;3.85;;
43771;SDS011;59066;54.782;32.024;2022-10-28T03:33:40;6.38;;;3.88;;
43771;SDS011;59066;54.782;32.024;2022-10-28T03:36:08;10.88;;;4.43;;
43771;SDS011;59066;54.782;32.024;2022-10-28T03:38:35;5.82;;;3.42;;
43771;SDS011;59066;54.782;32.024;2022-10-28T03:41:03;8.30;;;4.10;;
43771;SDS011;59066;54.782;32.024;2022-10-28T03:43:30;6.72;;;3.70;;
43771;SDS011;59066;54.782;32.024;2022-10-28T03:45:58;7.13;;;4.20;;
43771;SDS011;59066;54.782;32.024;2022-10-28T03:48:25;5.13;;;3.83;;
43771;SDS011;59066;54.782;32.024;2022-10-28T03:50:52;4.90;;;3.72;;
43771;SDS011;59066;54.782;32.024;2022-10-28T03:53:21;9.13;;;4.00;;
43771;SDS011;59066;54.782;32.024;2022-10-28T03:55:54;8.43;;;3.78;;
43771;SDS011;59066;54.782;32.024;2022-10-28T03:58:22;4.95;;;3.53;;
43771;SDS011;59066;54.782;32.024;2022-10-28T04:00:50;6.82;;;4.38;;
43771;SDS011;59066;54.782;32.024;2022-10-28T04:03:19;9.85;;;4.70;;
43771;SDS011;59066;54.782;32.024;2022-10-28T04:05:47;6.55;;;4.45;;
43771;SDS011;59066;54.782;32.024;2022-10-28T04:08:15;8.23;;;4.65;;
43771;SDS011;59066;54.782;32.024;2022-10-28T04:10:44;8.60;;;6.05;;
43771;SDS011;59066;54.782;32.024;2022-10-28T04:13:13;7.15;;;4.00;;
43771;SDS011;59066;54.782;32.024;2022-10-28T04:15:41;8.98;;;5.25;;
43771;SDS011;59066;54.782;32.024;2022-10-28T04:18:08;8.05;;;5.28;;
43771;SDS011;59066;54.782;32.024;2022-10-28T04:20:36;6.55;;;4.43;;
43771;SDS011;59066;54.782;32.024;2022-10-28T04:23:04;8.02;;;4.63;;
43771;SDS011;59066;54.782;32.024;2022-10-28T04:25:31;10.15;;;6.38;;
43771;SDS011;59066;54.782;32.024;2022-10-28T04:27:59;7.30;;;4.05;;
43771;SDS011;59066;54.782;32.024;2022-10-28T04:30:26;7.10;;;4.35;;
43771;SDS011;59066;54.782;32.024;2022-10-28T04:32:53;7.97;;;4.40;;
43771;SDS011;59066;54.782;32.024;2022-10-28T04:35:21;10.23;;;4.60;;
43771;SDS011;59066;54.782;32.024;2022-10-28T04:37:49;7.97;;;4.70;;
43771;SDS011;59066;54.782;32.024;2022-10-28T04:40:17;7.00;;;4.75;;
43771;SDS011;59066;54.782;32.024;2022-10-28T04:42:44;15.30;;;6.28;;
43771;SDS011;59066;54.782;32.024;2022-10-28T04:45:12;10.20;;;5.20;;
43771;SDS011;59066;54.782;32.024;2022-10-28T04:47:39;8.82;;;5.28;;
43771;SDS011;59066;54.782;32.024;2022-10-28T04:50:06;9.93;;;5.63;;
43771;SDS011;59066;54.782;32.024;2022-10-28T04:52:34;12.35;;;5.45;;
43771;SDS011;59066;54.782;32.024;2022-10-28T04:55:02;9.80;;;5.25;;
43771;SDS011;59066;54.782;32.024;2022-10-28T04:57:29;14.65;;;6.22;;
43771;SDS011;59066;54.782;32.024;2022-10-28T04:59:58;10.27;;;5.97;;
43771;SDS011;59066;54.782;32.024;2022-10-28T05:02:25;14.93;;;6.63;;
43771;SDS011;59066;54.782;32.024;2022-10-28T05:04:52;12.18;;;6.57;;
43771;SDS011;59066;54.782;32.024;2022-10-28T05:07:20;11.70;;;5.63;;
43771;SDS011;59066;54.782;32.024;2022-10-28T05:09:48;9.05;;;5.15;;
43771;SDS011;59066;54.782;32.024;2022-10-28T05:12:15;10.45;;;5.50;;
43771;SDS011;59066;54.782;32.024;2022-10-28T05:14:43;10.70;;;5.03;;
43771;SDS011;59066;54.782;32.024;2022-10-28T05:17:10;11.70;;;5.13;;
43771;SDS011;59066;54.782;32.024;2022-10-28T05:19:37;10.15;;;6.05;;
43771;SDS011;59066;54.782;32.024;2022-10-28T05:22:05;13.27;;;5.75;;
43771;SDS011;59066;54.782;32.024;2022-10-28T05:24:32;12.07;;;5.60;;
43771;SDS011;59066;54.782;32.024;2022-10-28T05:27:00;9.90;;;5.70;;
43771;SDS011;59066;54.782;32.024;2022-10-28T05:29:27;10.23;;;5.72;;
43771;SDS011;59066;54.782;32.024;2022-10-28T05:31:58;13.18;;;6.40;;
43771;SDS011;59066;54.782;32.024;2022-10-28T05:34:26;7.93;;;4.90;;
43771;SDS011;59066;54.782;32.024;2022-10-28T05:36:53;8.57;;;5.88;;
43771;SDS011;59066;54.782;32.024;2022-10-28T05:39:21;10.27;;;5.00;;
43771;SDS011;59066;54.782;32.024;2022-10-28T05:41:48;11.57;;;6.18;;
43771;SDS011;59066;54.782;32.024;2022-10-28T05:44:15;11.48;;;6.93;;
43771;SDS011;59066;54.782;32.024;2022-10-28T05:46:43;12.65;;;5.85;;
43771;SDS011;59066;54.782;32.024;2022-10-28T05:49:10;13.55;;;5.07;;
43771;SDS011;59066;54.782;32.024;2022-10-28T05:51:38;7.70;;;4.88;;
43771;SDS011;59066;54.782;32.024;2022-10-28T05:54:05;10.52;;;5.60;;
43771;SDS011;59066;54.782;32.024;2022-10-28T05:56:32;12.45;;;6.55;;
43771;SDS011;59066;54.782;32.024;2022-10-28T05:59:00;9.57;;;5.90;;
43771;SDS011;59066;54.782;32.024;2022-10-28T06:01:27;11.07;;;6.25;;
43771;SDS011;59066;54.782;32.024;2022-10-28T06:03:55;10.27;;;6.15;;
43771;SDS011;59066;54.782;32.024;2022-10-28T06:06:22;14.48;;;6.53;;
43771;SDS011;59066;54.782;32.024;2022-10-28T06:08:50;12.85;;;6.88;;
43771;SDS011;59066;54.782;32.024;2022-10-28T06:11:17;11.25;;;6.18;;
43771;SDS011;59066;54.782;32.024;2022-10-28T06:13:45;14.55;;;7.07;;
43771;SDS011;59066;54.782;32.024;2022-10-28T06:16:12;13.68;;;8.63;;
43771;SDS011;59066;54.782;32.024;2022-10-28T06:18:40;11.07;;;7.03;;
43771;SDS011;59066;54.782;32.024;2022-10-28T06:21:07;13.73;;;7.25;;
43771;SDS011;59066;54.782;32.024;2022-10-28T06:23:35;12.65;;;6.53;;
43771;SDS011;59066;54.782;32.024;2022-10-28T06:26:02;11.70;;;6.28;;
43771;SDS011;59066;54.782;32.024;2022-10-28T06:28:31;14.93;;;12.43;;
43771;SDS011;59066;54.782;32.024;2022-10-28T06:31:05;10.50;;;7.00;;
43771;SDS011;59066;54.782;32.024;2022-10-28T06:33:39;9.48;;;6.57;;
43771;SDS011;59066;54.782;32.024;2022-10-28T06:36:07;23.08;;;13.60;;
43771;SDS011;59066;54.782;32.024;2022-10-28T06:38:34;12.20;;;6.72;;
43771;SDS011;59066;54.782;32.024;2022-10-28T06:41:02;15.25;;;7.22;;
43771;SDS011;59066;54.782;32.024;2022-10-28T06:43:29;32.00;;;15.27;;
43771;SDS011;59066;54.782;32.024;2022-10-28T06:45:59;12.35;;;7.57;;
43771;SDS011;59066;54.782;32.024;2022-10-28T06:48:28;14.15;;;8.20;;
43771;SDS011;59066;54.782;32.024;2022-10-28T06:50:55;14.45;;;7.72;;
43771;SDS011;59066;54.782;32.024;2022-10-28T06:53:24;27.60;;;12.52;;
43771;SDS011;59066;54.782;32.024;2022-10-28T06:55:54;22.40;;;9.40;;
43771;SDS011;59066;54.782;32.024;2022-10-28T06:58:23;16.30;;;8.02;;
43771;SDS011;59066;54.782;32.024;2022-10-28T07:00:51;12.30;;;8.38;;
43771;SDS011;59066;54.782;32.024;2022-10-28T07:03:19;13.02;;;8.05;;
43771;SDS011;59066;54.782;32.024;2022-10-28T07:05:47;14.57;;;9.00;;
43771;SDS011;59066;54.782;32.024;2022-10-28T07:08:17;17.85;;;9.23;;
43771;SDS011;59066;54.782;32.024;2022-10-28T07:10:51;14.13;;;8.05;;
43771;SDS011;59066;54.782;32.024;2022-10-28T07:13:28;14.50;;;8.25;;
43771;SDS011;59066;54.782;32.024;2022-10-28T07:15:56;30.40;;;13.38;;
43771;SDS011;59066;54.782;32.024;2022-10-28T07:18:25;15.32;;;8.30;;
43771;SDS011;59066;54.782;32.024;2022-10-28T07:20:58;14.18;;;7.57;;
43771;SDS011;59066;54.782;32.024;2022-10-28T07:23:26;13.57;;;7.63;;
43771;SDS011;59066;54.782;32.024;2022-10-28T07:25:55;17.58;;;8.95;;
43771;SDS011;59066;54.782;32.024;2022-10-28T07:28:23;20.30;;;8.40;;
43771;SDS011;59066;54.782;32.024;2022-10-28T07:30:51;17.45;;;9.68;;
43771;SDS011;59066;54.782;32.024;2022-10-28T07:33:19;14.85;;;8.57;;
43771;SDS011;59066;54.782;32.024;2022-10-28T07:35:46;15.38;;;8.75;;
43771;SDS011;59066;54.782;32.024;2022-10-28T07:38:14;10.20;;;7.07;;
43771;SDS011;59066;54.782;32.024;2022-10-28T07:40:41;20.05;;;8.38;;
43771;SDS011;59066;54.782;32.024;2022-10-28T07:43:08;17.95;;;10.43;;
43771;SDS011;59066;54.782;32.024;2022-10-28T07:45:36;16.40;;;8.48;;
43771;SDS011;59066;54.782;32.024;2022-10-28T07:48:04;12.18;;;7.43;;
43771;SDS011;59066;54.782;32.024;2022-10-28T07:50:34;11.68;;;7.65;;
43771;SDS011;59066;54.782;32.024;2022-10-28T07:53:01;25.20;;;9.60;;
43771;SDS011;59066;54.782;32.024;2022-10-28T07:55:28;12.45;;;7.10;;
43771;SDS011;59066;54.782;32.024;2022-10-28T07:57:56;13.70;;;7.60;;
43771;SDS011;59066;54.782;32.024;2022-10-28T08:00:24;10.27;;;7.32;;
43771;SDS011;59066;54.782;32.024;2022-10-28T08:02:51;13.63;;;7.40;;
43771;SDS011;59066;54.782;32.024;2022-10-28T08:05:19;14.48;;;8.25;;
43771;SDS011;59066;54.782;32.024;2022-10-28T08:07:46;13.65;;;7.72;;
43771;SDS011;59066;54.782;32.024;2022-10-28T08:10:14;17.67;;;9.75;;
43771;SDS011;59066;54.782;32.024;2022-10-28T08:12:42;12.13;;;7.43;;
43771;SDS011;59066;54.782;32.024;2022-10-28T08:15:12;13.48;;;8.20;;
43771;SDS011;59066;54.782;32.024;2022-10-28T08:17:41;10.60;;;7.03;;
43771;SDS011;59066;54.782;32.024;2022-10-28T08:20:08;12.10;;;6.90;;
43771;SDS011;59066;54.782;32.024;2022-10-28T08:22:36;12.07;;;7.60;;
43771;SDS011;59066;54.782;32.024;2022-10-28T08:25:03;12.45;;;8.80;;
43771;SDS011;59066;54.782;32.024;2022-10-28T08:27:31;15.40;;;8.95;;
43771;SDS011;59066;54.782;32.024;2022-10-28T08:29:59;9.88;;;6.93;;
43771;SDS011;59066;54.782;32.024;2022-10-28T08:32:26;9.43;;;6.07;;
43771;SDS011;59066;54.782;32.024;2022-10-28T08:34:54;12.52;;;7.20;;
43771;SDS011;59066;54.782;32.024;2022-10-28T08:37:21;15.35;;;7.22;;
43771;SDS011;59066;54.782;32.024;2022-10-28T08:39:48;12.38;;;6.95;;
43771;SDS011;59066;54.782;32.024;2022-10-28T08:44:59;9.70;;;6.97;;
43771;SDS011;59066;54.782;32.024;2022-10-28T08:47:53;17.35;;;6.93;;
43771;SDS011;59066;54.782;32.024;2022-10-28T08:50:48;15.95;;;8.50;;
43771;SDS011;59066;54.782;32.024;2022-10-28T08:56:02;14.27;;;9.43;;
43771;SDS011;59066;54.782;32.024;2022-10-28T08:58:35;16.63;;;10.60;;
43771;SDS011;59066;54.782;32.024;2022-10-28T09:01:05;13.73;;;8.50;;
43771;SDS011;59066;54.782;32.024;2022-10-28T09:03:40;17.50;;;7.55;;
43771;SDS011;59066;54.782;32.024;2022-10-28T09:06:11;18.92;;;8.88;;
43771;SDS011;59066;54.782;32.024;2022-10-28T09:08:39;17.70;;;8.60;;
43771;SDS011;59066;54.782;32.024;2022-10-28T09:16:45;10.75;;;7.25;;
43771;SDS011;59066;54.782;32.024;2022-10-28T09:31:03;11.98;;;7.45;;
43771;SDS011;59066;54.782;32.024;2022-10-28T09:36:24;14.75;;;9.27;;
43771;SDS011;59066;54.782;32.024;2022-10-28T09:38:57;15.55;;;9.90;;
43771;SDS011;59066;54.782;32.024;2022-10-28T09:41:26;18.02;;;10.52;;
43771;SDS011;59066;54.782;32.024;2022-10-28T09:46:32;12.57;;;8.20;;
43771;SDS011;59066;54.782;32.024;2022-10-28T09:49:02;12.25;;;7.35;;
43771;SDS011;59066;54.782;32.024;2022-10-28T09:54:26;14.05;;;8.75;;
43771;SDS011;59066;54.782;32.024;2022-10-28T09:56:58;13.93;;;9.05;;
43771;SDS011;59066;54.782;32.024;2022-10-28T09:59:25;16.85;;;9.95;;
43771;SDS011;59066;54.782;32.024;2022-10-28T10:01:53;19.45;;;10.45;;
43771;SDS011;59066;54.782;32.024;2022-10-28T10:04:27;14.35;;;9.70;;
43771;SDS011;59066;54.782;32.024;2022-10-28T10:06:59;18.27;;;10.68;;
43771;SDS011;59066;54.782;32.024;2022-10-28T10:09:31;15.95;;;10.50;;
43771;SDS011;59066;54.782;32.024;2022-10-28T10:12:09;15.00;;;9.52;;
43771;SDS011;59066;54.782;32.024;2022-10-28T10:14:42;15.23;;;10.23;;
43771;SDS011;59066;54.782;32.024;2022-10-28T10:17:14;17.17;;;11.45;;
43771;SDS011;59066;54.782;32.024;2022-10-28T10:20:03;17.30;;;10.75;;
43771;SDS011;59066;54.782;32.024;2022-10-28T10:22:38;17.63;;;10.02;;
43771;SDS011;59066;54.782;32.024;2022-10-28T10:25:27;17.88;;;11.07;;
43771;SDS011;59066;54.782;32.024;2022-10-28T10:28:04;19.88;;;12.57;;
43771;SDS011;59066;54.782;32.024;2022-10-28T10:30:44;19.52;;;11.98;;
43771;SDS011;59066;54.782;32.024;2022-10-28T10:33:17;17.77;;;11.48;;
43771;SDS011;59066;54.782;32.024;2022-10-28T10:36:04;21.40;;;13.15;;
43771;SDS011;59066;54.782;32.024;2022-10-28T10:38:48;21.88;;;12.98;;
43771;SDS011;59066;54.782;32.024;2022-10-28T10:41:37;20.55;;;13.82;;
43771;SDS011;59066;54.782;32.024;2022-10-28T10:49:30;19.52;;;12.02;;
43771;SDS011;59066;54.782;32.024;2022-10-28T10:51:58;20.45;;;13.85;;
43771;SDS011;59066;54.782;32.024;2022-10-28T10:54:29;22.88;;;15.05;;
43771;SDS011;59066;54.782;32.024;2022-10-28T10:57:08;22.40;;;13.55;;
43771;SDS011;59066;54.782;32.024;2022-10-28T10:59:45;18.70;;;14.05;;
43771;SDS011;59066;54.782;32.024;2022-10-28T11:02:22;23.75;;;14.15;;
43771;SDS011;59066;54.782;32.024;2022-10-28T11:04:58;20.92;;;12.02;;
43771;SDS011;59066;54.782;32.024;2022-10-28T11:07:34;21.90;;;13.63;;
43771;SDS011;59066;54.782;32.024;2022-10-28T11:10:03;21.30;;;13.98;;
43771;SDS011;59066;54.782;32.024;2022-10-28T11:12:32;16.27;;;12.10;;
43771;SDS011;59066;54.782;32.024;2022-10-28T11:15:02;17.50;;;11.75;;
43771;SDS011;59066;54.782;32.024;2022-10-28T11:17:52;18.73;;;12.77;;
43771;SDS011;59066;54.782;32.024;2022-10-28T11:20:52;16.75;;;9.45;;
43771;SDS011;59066;54.782;32.024;2022-10-28T11:26:31;14.90;;;10.05;;
43771;SDS011;59066;54.782;32.024;2022-10-28T11:29:10;24.90;;;13.70;;
43771;SDS011;59066;54.782;32.024;2022-10-28T11:45:35;16.33;;;10.73;;
43771;SDS011;59066;54.782;32.024;2022-10-28T11:56:34;16.10;;;12.70;;
43771;SDS011;59066;54.782;32.024;2022-10-28T11:59:10;18.00;;;13.02;;
43771;SDS011;59066;54.782;32.024;2022-10-28T12:21:43;18.67;;;12.88;;
43771;SDS011;59066;54.782;32.024;2022-10-28T12:24:20;21.90;;;14.82;;
43771;SDS011;59066;54.782;32.024;2022-10-28T12:26:51;33.00;;;17.45;;
43771;SDS011;59066;54.782;32.024;2022-10-28T12:29:24;28.70;;;20.60;;
43771;SDS011;59066;54.782;32.024;2022-10-28T12:31:57;26.05;;;16.45;;
43771;SDS011;59066;54.782;32.024;2022-10-28T12:34:50;20.55;;;14.65;;
43771;SDS011;59066;54.782;32.024;2022-10-28T12:37:23;24.90;;;15.80;;
43771;SDS011;59066;54.782;32.024;2022-10-28T12:40:05;23.80;;;15.80;;
43771;SDS011;59066;54.782;32.024;2022-10-28T12:42:41;21.13;;;14.05;;
43771;SDS011;59066;54.782;32.024;2022-10-28T12:45:16;25.05;;;16.48;;
43771;SDS011;59066;54.782;32.024;2022-10-28T12:50:26;21.50;;;15.30;;
43771;SDS011;59066;54.782;32.024;2022-10-28T12:55:58;18.77;;;13.45;;
43771;SDS011;59066;54.782;32.024;2022-10-28T13:01:06;18.35;;;14.25;;
43771;SDS011;59066;54.782;32.024;2022-10-28T13:03:37;19.73;;;14.00;;
43771;SDS011;59066;54.782;32.024;2022-10-28T13:06:10;20.23;;;13.48;;
43771;SDS011;59066;54.782;32.024;2022-10-28T13:14:29;17.92;;;11.80;;
43771;SDS011;59066;54.782;32.024;2022-10-28T13:20:13;14.85;;;10.98;;
43771;SDS011;59066;54.782;32.024;2022-10-28T13:22:51;21.85;;;12.90;;
43771;SDS011;59066;54.782;32.024;2022-10-28T13:28:15;16.98;;;12.02;;
43771;SDS011;59066;54.782;32.024;2022-10-28T13:30:51;17.60;;;12.80;;
43771;SDS011;59066;54.782;32.024;2022-10-28T13:33:24;22.25;;;13.93;;
43771;SDS011;59066;54.782;32.024;2022-10-28T13:35:53;20.35;;;11.75;;
43771;SDS011;59066;54.782;32.024;2022-10-28T13:38:33;17.70;;;12.10;;
43771;SDS011;59066;54.782;32.024;2022-10-28T13:51:58;21.00;;;14.30;;
43771;SDS011;59066;54.782;32.024;2022-10-28T13:54:29;22.63;;;15.43;;
43771;SDS011;59066;54.782;32.024;2022-10-28T13:59:56;22.42;;;14.85;;
43771;SDS011;59066;54.782;32.024;2022-10-28T14:02:35;19.90;;;13.15;;
43771;SDS011;59066;54.782;32.024;2022-10-28T14:05:06;23.17;;;16.63;;
43771;SDS011;59066;54.782;32.024;2022-10-28T14:10:30;22.02;;;14.63;;
43771;SDS011;59066;54.782;32.024;2022-10-28T14:13:00;23.75;;;14.95;;
43771;SDS011;59066;54.782;32.024;2022-10-28T14:18:52;28.30;;;17.33;;
43771;SDS011;59066;54.782;32.024;2022-10-28T14:24:32;32.08;;;21.15;;
43771;SDS011;59066;54.782;32.024;2022-10-28T14:29:44;27.50;;;16.88;;
43771;SDS011;59066;54.782;32.024;2022-10-28T14:35:00;30.45;;;17.77;;
43771;SDS011;59066;54.782;32.024;2022-10-28T14:48:54;31.85;;;18.58;;
43771;SDS011;59066;54.782;32.024;2022-10-28T14:51:24;31.02;;;19.88;;
43771;SDS011;59066;54.782;32.024;2022-10-28T14:53:56;32.70;;;17.25;;
43771;SDS011;59066;54.782;32.024;2022-10-28T14:56:29;30.80;;;18.88;;
43771;SDS011;59066;54.782;32.024;2022-10-28T14:58:59;32.42;;;18.42;;
43771;SDS011;59066;54.782;32.024;2022-10-28T15:04:27;28.65;;;18.55;;
43771;SDS011;59066;54.782;32.024;2022-10-28T15:06:55;33.20;;;20.52;;
43771;SDS011;59066;54.782;32.024;2022-10-28T15:09:27;41.20;;;25.17;;
43771;SDS011;59066;54.782;32.024;2022-10-28T15:11:56;30.80;;;18.52;;
43771;SDS011;59066;54.782;32.024;2022-10-28T15:17:20;33.92;;;18.75;;
43771;SDS011;59066;54.782;32.024;2022-10-28T15:19:53;39.70;;;23.70;;
43771;SDS011;59066;54.782;32.024;2022-10-28T15:22:23;34.25;;;21.35;;
43771;SDS011;59066;54.782;32.024;2022-10-28T15:24:51;38.95;;;21.92;;
43771;SDS011;59066;54.782;32.024;2022-10-28T15:27:22;33.20;;;19.60;;
43771;SDS011;59066;54.782;32.024;2022-10-28T15:29:51;38.42;;;20.60;;
43771;SDS011;59066;54.782;32.024;2022-10-28T15:34:46;40.20;;;22.02;;
43771;SDS011;59066;54.782;32.024;2022-10-28T15:37:24;39.13;;;23.25;;
43771;SDS011;59066;54.782;32.024;2022-10-28T15:45:27;38.05;;;20.40;;
43771;SDS011;59066;54.782;32.024;2022-10-28T15:47:56;39.00;;;20.58;;
43771;SDS011;59066;54.782;32.024;2022-10-28T15:55:34;44.22;;;21.27;;
43771;SDS011;59066;54.782;32.024;2022-10-28T16:00:59;54.75;;;24.38;;
43771;SDS011;59066;54.782;32.024;2022-10-28T16:03:39;52.80;;;23.35;;
43771;SDS011;59066;54.782;32.024;2022-10-28T16:06:18;47.13;;;21.95;;
43771;SDS011;59066;54.782;32.024;2022-10-28T16:09:41;56.10;;;24.13;;
43771;SDS011;59066;54.782;32.024;2022-10-28T16:11:59;48.28;;;22.05;;
43771;SDS011;59066;54.782;32.024;2022-10-28T16:14:38;57.00;;;25.25;;
43771;SDS011;59066;54.782;32.024;2022-10-28T16:17:16;61.15;;;24.35;;
43771;SDS011;59066;54.782;32.024;2022-10-28T16:22:23;67.25;;;29.17;;
43771;SDS011;59066;54.782;32.024;2022-10-28T16:24:52;59.95;;;26.45;;
43771;SDS011;59066;54.782;32.024;2022-10-28T16:27:21;60.97;;;24.92;;
43771;SDS011;59066;54.782;32.024;2022-10-28T16:29:51;57.10;;;25.95;;
43771;SDS011;59066;54.782;32.024;2022-10-28T16:32:21;65.63;;;26.15;;
43771;SDS011;59066;54.782;32.024;2022-10-28T16:35:00;65.95;;;24.02;;
43771;SDS011;59066;54.782;32.024;2022-10-28T16:37:30;58.95;;;24.15;;
43771;SDS011;59066;54.782;32.024;2022-10-28T16:39:58;55.25;;;23.60;;
43771;SDS011;59066;54.782;32.024;2022-10-28T16:42:25;54.72;;;23.30;;
43771;SDS011;59066;54.782;32.024;2022-10-28T16:44:53;64.47;;;29.88;;
43771;SDS011;59066;54.782;32.024;2022-10-28T16:47:21;68.13;;;28.30;;
43771;SDS011;59066;54.782;32.024;2022-10-28T16:49:52;66.75;;;24.45;;
43771;SDS011;59066;54.782;32.024;2022-10-28T16:52:22;63.00;;;25.00;;
43771;SDS011;59066;54.782;32.024;2022-10-28T16:54:55;64.65;;;25.20;;
43771;SDS011;59066;54.782;32.024;2022-10-28T16:57:23;62.92;;;24.52;;
43771;SDS011;59066;54.782;32.024;2022-10-28T16:59:51;61.15;;;25.42;;
43771;SDS011;59066;54.782;32.024;2022-10-28T17:02:32;63.00;;;24.83;;
43771;SDS011;59066;54.782;32.024;2022-10-28T17:05:01;60.65;;;24.95;;
43771;SDS011;59066;54.782;32.024;2022-10-28T17:07:30;81.18;;;35.03;;
43771;SDS011;59066;54.782;32.024;2022-10-28T17:09:58;62.05;;;24.63;;
43771;SDS011;59066;54.782;32.024;2022-10-28T17:12:26;65.05;;;24.75;;
43771;SDS011;59066;54.782;32.024;2022-10-28T17:14:53;87.45;;;35.75;;
43771;SDS011;59066;54.782;32.024;2022-10-28T17:17:21;67.13;;;24.80;;
43771;SDS011;59066;54.782;32.024;2022-10-28T17:19:48;72.60;;;25.83;;
43771;SDS011;59066;54.782;32.024;2022-10-28T17:22:16;80.03;;;27.85;;
43771;SDS011;59066;54.782;32.024;2022-10-28T17:24:43;70.95;;;24.88;;
43771;SDS011;59066;54.782;32.024;2022-10-28T17:27:10;85.68;;;26.35;;
43771;SDS011;59066;54.782;32.024;2022-10-28T17:29:38;82.43;;;25.60;;
43771;SDS011;59066;54.782;32.024;2022-10-28T17:32:05;83.15;;;24.70;;
43771;SDS011;59066;54.782;32.024;2022-10-28T17:34:35;90.05;;;29.13;;
43771;SDS011;59066;54.782;32.024;2022-10-28T17:37:02;86.43;;;29.23;;
43771;SDS011;59066;54.782;32.024;2022-10-28T17:39:30;96.05;;;30.17;;
43771;SDS011;59066;54.782;32.024;2022-10-28T17:41:57;88.05;;;28.35;;
43771;SDS011;59066;54.782;32.024;2022-10-28T17:44:25;88.22;;;27.13;;
43771;SDS011;59066;54.782;32.024;2022-10-28T17:46:53;98.78;;;26.20;;
43771;SDS011;59066;54.782;32.024;2022-10-28T17:49:21;98.78;;;29.70;;
43771;SDS011;59066;54.782;32.024;2022-10-28T17:51:49;97.13;;;28.83;;
43771;SDS011;59066;54.782;32.024;2022-10-28T17:54:17;89.47;;;26.63;;
43771;SDS011;59066;54.782;32.024;2022-10-28T17:56:44;87.90;;;27.60;;
43771;SDS011;59066;54.782;32.024;2022-10-28T17:59:13;70.78;;;25.13;;
43771;SDS011;59066;54.782;32.024;2022-10-28T18:01:41;66.43;;;25.27;;
43771;SDS011;59066;54.782;32.024;2022-10-28T18:04:09;68.82;;;23.27;;
43771;SDS011;59066;54.782;32.024;2022-10-28T18:06:37;66.40;;;24.35;;
43771;SDS011;59066;54.782;32.024;2022-10-28T18:09:08;56.92;;;24.65;;
43771;SDS011;59066;54.782;32.024;2022-10-28T18:11:37;64.00;;;28.83;;
43771;SDS011;59066;54.782;32.024;2022-10-28T18:14:05;67.80;;;29.83;;